Time;durP1;ratioP1;P1;durP2;ratioP2;P2;SDS_P1;SDS_P2;PMS_P1;PMS_P2;Temp;Humidity;BMP_temperature;BMP_pressure;BME280_temperature;BME280_humidity;BME280_pressure;Samples;Min_cycle;Max_cycle;Signal;HPM_P1;HPM_P2
2022/07/08 00:00:21;;;;;;;7.73;2.63;;;17.00;95.60;;;;;;4933161;29;20644;-68
2022/07/08 00:02:48;;;;;;;3.20;2.67;;;17.00;95.60;;;;;;4934460;29;20616;-68
2022/07/08 00:05:15;;;;;;;5.80;3.10;;;16.90;95.60;;;;;;4933783;29;20624;-67
2022/07/08 00:07:42;;;;;;;4.13;3.10;;;16.90;95.70;;;;;;4933160;29;20675;-69
2022/07/08 00:10:09;;;;;;;3.20;2.80;;;16.90;95.60;;;;;;4932689;29;20621;-68
2022/07/08 00:12:36;;;;;;;6.47;2.70;;;16.90;95.60;;;;;;4933247;29;20728;-69
2022/07/08 00:15:03;;;;;;;2.57;2.37;;;16.90;95.50;;;;;;4933907;29;21020;-69
2022/07/08 00:17:30;;;;;;;2.80;2.60;;;16.90;95.40;;;;;;4933209;29;20689;-70
2022/07/08 00:19:57;;;;;;;2.97;2.70;;;16.90;95.60;;;;;;4931970;29;20643;-68
2022/07/08 00:22:24;;;;;;;5.03;2.43;;;16.80;95.60;;;;;;4934341;29;20724;-68
2022/07/08 00:24:50;;;;;;;2.70;2.50;;;16.80;95.80;;;;;;4933009;29;20645;-68
2022/07/08 00:27:17;;;;;;;3.37;3.00;;;16.70;95.80;;;;;;4933748;29;20747;-68
2022/07/08 00:29:44;;;;;;;3.40;2.70;;;16.70;95.80;;;;;;4932358;29;20650;-68
2022/07/08 00:32:11;;;;;;;6.17;2.97;;;16.60;96.00;;;;;;4933621;29;20647;-68
2022/07/08 00:34:38;;;;;;;3.40;2.83;;;16.70;95.90;;;;;;4915413;29;20637;-70
2022/07/08 00:37:06;;;;;;;1.97;1.87;;;16.70;95.90;;;;;;4915627;29;20669;-69
2022/07/08 00:39:33;;;;;;;4.37;2.80;;;16.70;96.00;;;;;;4933149;29;20629;-70
2022/07/08 00:42:00;;;;;;;3.77;2.10;;;16.70;96.00;;;;;;4933226;29;20631;-68
2022/07/08 00:44:27;;;;;;;5.50;2.27;;;16.60;96.10;;;;;;4914939;29;20629;-69
2022/07/08 00:46:53;;;;;;;3.30;2.50;;;16.70;96.00;;;;;;4931989;29;20664;-69
2022/07/08 00:49:20;;;;;;;3.10;2.40;;;16.60;96.10;;;;;;4931636;29;20975;-68
2022/07/08 00:51:47;;;;;;;2.73;2.10;;;16.50;96.20;;;;;;4932560;29;21011;-69
2022/07/08 00:54:17;;;;;;;3.27;2.47;;;16.40;96.30;;;;;;4932559;29;20635;-68
2022/07/08 00:56:44;;;;;;;3.00;2.80;;;16.40;96.30;;;;;;4931044;29;21248;-68
2022/07/08 00:59:12;;;;;;;2.63;2.43;;;16.30;96.40;;;;;;4915519;29;21068;-70
2022/07/08 01:01:39;;;;;;;3.77;2.83;;;16.30;96.30;;;;;;4932066;29;20648;-68
2022/07/08 01:04:06;;;;;;;2.10;1.90;;;16.30;96.20;;;;;;4929283;29;20649;-68
2022/07/08 01:06:34;;;;;;;2.80;2.60;;;16.40;96.10;;;;;;4931640;29;21262;-68
2022/07/08 01:09:01;;;;;;;3.73;2.50;;;16.30;96.10;;;;;;4932791;29;21280;-68
2022/07/08 01:11:28;;;;;;;3.83;2.47;;;16.30;96.20;;;;;;4931191;29;20680;-68
2022/07/08 01:13:56;;;;;;;4.97;2.10;;;16.20;96.30;;;;;;4930558;29;21233;-69
2022/07/08 01:16:22;;;;;;;4.27;2.93;;;16.10;96.40;;;;;;4932250;29;20646;-68
2022/07/08 01:18:50;;;;;;;4.13;2.70;;;16.20;96.30;;;;;;4931927;29;20701;-69
2022/07/08 01:21:17;;;;;;;3.00;2.47;;;16.30;96.30;;;;;;4947683;29;20647;-67
2022/07/08 01:23:44;;;;;;;3.63;2.83;;;16.30;96.30;;;;;;4932202;29;20660;-69
2022/07/08 01:26:12;;;;;;;6.07;2.80;;;16.20;96.40;;;;;;4931971;29;20637;-68
2022/07/08 01:28:41;;;;;;;4.07;2.60;;;16.20;96.60;;;;;;4931757;29;21243;-68
2022/07/08 01:31:07;;;;;;;2.50;2.27;;;16.20;96.50;;;;;;4932106;29;20637;-65
2022/07/08 01:33:34;;;;;;;2.47;2.33;;;16.20;96.60;;;;;;4932339;29;20725;-68
2022/07/08 01:36:01;;;;;;;2.47;2.37;;;16.20;96.70;;;;;;4931766;29;20704;-68
2022/07/08 01:38:28;;;;;;;2.03;1.93;;;16.10;96.80;;;;;;4933199;29;20693;-69
2022/07/08 01:40:55;;;;;;;3.93;2.37;;;16.10;97.00;;;;;;4932806;29;20617;-68
2022/07/08 01:43:22;;;;;;;2.37;2.20;;;16.00;97.00;;;;;;4932525;29;20640;-69
2022/07/08 01:45:49;;;;;;;2.40;2.20;;;16.10;97.10;;;;;;4931154;29;20720;-68
2022/07/08 01:48:16;;;;;;;2.53;2.33;;;16.10;97.10;;;;;;4932533;29;20733;-69
2022/07/08 01:50:43;;;;;;;2.97;2.70;;;16.10;97.10;;;;;;4931402;29;20637;-68
2022/07/08 01:53:11;;;;;;;2.40;2.20;;;16.10;97.30;;;;;;4932242;29;21199;-67
2022/07/08 01:55:38;;;;;;;6.00;1.97;;;16.10;97.20;;;;;;4932000;29;20640;-69
2022/07/08 01:58:05;;;;;;;2.90;2.60;;;16.00;97.50;;;;;;4932914;29;20673;-67
2022/07/08 02:00:32;;;;;;;2.97;2.30;;;16.00;97.20;;;;;;4931598;29;20671;-69
2022/07/08 02:02:59;;;;;;;3.73;2.33;;;16.00;97.40;;;;;;4931836;29;20705;-69
2022/07/08 02:05:26;;;;;;;2.37;2.17;;;16.00;97.30;;;;;;4931563;29;20677;-68
2022/07/08 02:07:53;;;;;;;5.10;1.83;;;15.90;97.50;;;;;;4934213;29;20655;-69
2022/07/08 02:10:20;;;;;;;2.10;1.80;;;15.90;97.60;;;;;;4934612;29;20719;-68
2022/07/08 02:12:47;;;;;;;2.53;2.20;;;15.80;97.70;;;;;;4934720;29;20720;-68
2022/07/08 02:15:13;;;;;;;3.47;1.60;;;15.80;97.90;;;;;;4934614;29;21005;-66
2022/07/08 02:17:42;;;;;;;5.07;1.70;;;15.70;98.30;;;;;;4934990;29;20779;-69
2022/07/08 02:20:11;;;;;;;3.93;2.10;;;15.70;98.20;;;;;;4934707;29;20668;-69
2022/07/08 02:22:40;;;;;;;6.07;2.17;;;15.70;98.30;;;;;;4934918;29;21192;-69
2022/07/08 02:25:08;;;;;;;2.50;1.70;;;15.60;98.50;;;;;;4934297;29;21025;-69
2022/07/08 02:27:35;;;;;;;1.67;1.57;;;15.60;98.60;;;;;;4935014;29;20656;-69
2022/07/08 02:30:02;;;;;;;2.93;1.60;;;15.60;98.60;;;;;;4934069;29;20651;-68
2022/07/08 02:32:29;;;;;;;2.13;1.93;;;15.60;98.80;;;;;;4934004;29;20624;-69
2022/07/08 02:34:57;;;;;;;2.67;1.67;;;15.60;98.90;;;;;;4934732;29;20645;-68
2022/07/08 02:37:23;;;;;;;3.03;1.87;;;15.50;99.10;;;;;;4933746;29;20970;-68
2022/07/08 02:39:50;;;;;;;5.40;2.30;;;15.50;99.10;;;;;;4934977;29;20613;-68
2022/07/08 02:42:17;;;;;;;4.60;2.20;;;15.60;99.30;;;;;;4917311;29;20637;-69
2022/07/08 02:44:44;;;;;;;3.30;2.00;;;15.60;99.10;;;;;;4935127;29;20616;-68
2022/07/08 02:47:10;;;;;;;3.80;2.03;;;15.60;99.00;;;;;;4933852;29;20664;-69
2022/07/08 02:49:37;;;;;;;2.33;2.20;;;15.60;99.00;;;;;;4934637;29;20724;-69
2022/07/08 02:52:04;;;;;;;4.20;1.77;;;15.60;99.10;;;;;;4934204;29;21010;-68
2022/07/08 02:54:31;;;;;;;3.43;1.90;;;15.60;99.30;;;;;;4933890;29;20986;-68
2022/07/08 02:56:58;;;;;;;4.60;2.10;;;15.50;99.30;;;;;;4933852;29;20667;-70
2022/07/08 02:59:24;;;;;;;1.27;1.20;;;15.40;99.50;;;;;;4934442;29;20664;-69
2022/07/08 03:01:51;;;;;;;3.90;2.00;;;15.40;99.70;;;;;;4948485;29;21192;-69
2022/07/08 03:04:18;;;;;;;1.53;1.37;;;15.30;99.90;;;;;;4933243;29;20728;-69
2022/07/08 03:06:45;;;;;;;1.87;1.30;;;15.30;99.90;;;;;;4934073;29;20649;-70
2022/07/08 03:09:12;;;;;;;4.23;1.67;;;15.20;99.90;;;;;;4933497;29;20720;-70
2022/07/08 03:11:39;;;;;;;2.00;1.40;;;15.20;99.90;;;;;;4917789;29;21192;-70
2022/07/08 03:14:06;;;;;;;1.27;1.20;;;15.10;99.90;;;;;;4934624;29;20647;-70
2022/07/08 03:16:33;;;;;;;1.27;1.27;;;15.00;99.90;;;;;;4933088;29;20663;-69
2022/07/08 03:19:00;;;;;;;3.73;1.17;;;14.90;99.90;;;;;;4932806;29;20667;-71
2022/07/08 03:21:27;;;;;;;2.33;1.43;;;14.90;99.90;;;;;;4933584;29;20733;-69
2022/07/08 03:23:54;;;;;;;2.30;1.40;;;14.80;99.90;;;;;;4934054;29;20617;-69
2022/07/08 03:26:20;;;;;;;1.40;1.30;;;14.80;99.90;;;;;;4932113;29;21086;-69
2022/07/08 03:28:47;;;;;;;2.93;1.60;;;14.70;99.90;;;;;;4933514;29;20982;-70
2022/07/08 03:31:15;;;;;;;3.37;1.33;;;14.70;99.90;;;;;;4933149;29;21247;-69
2022/07/08 03:33:45;;;;;;;2.80;1.20;;;14.80;99.90;;;;;;4916263;29;21455;-69
2022/07/08 03:36:12;;;;;;;3.47;1.70;;;14.80;99.90;;;;;;4917253;29;21104;-69
2022/07/08 03:38:39;;;;;;;7.03;1.60;;;14.70;99.90;;;;;;4933129;29;20688;-70
2022/07/08 03:41:21;;;;;;;2.60;1.40;;;14.70;99.90;;;;;;4934379;29;20641;-70
2022/07/08 03:43:49;;;;;;;3.97;1.90;;;14.50;99.90;;;;;;4932941;29;20637;-69
2022/07/08 03:46:16;;;;;;;1.50;1.40;;;14.50;99.90;;;;;;4933428;29;20665;-69
2022/07/08 03:48:43;;;;;;;1.10;1.10;;;14.40;99.90;;;;;;4933274;29;20628;-68
2022/07/08 03:51:11;;;;;;;1.53;1.17;;;14.50;99.90;;;;;;4916978;29;20711;-69
2022/07/08 03:53:38;;;;;;;1.40;1.30;;;14.50;99.90;;;;;;4934528;29;21219;-70
2022/07/08 03:56:05;;;;;;;3.03;2.00;;;14.50;99.90;;;;;;4932652;29;20644;-69
2022/07/08 03:58:33;;;;;;;1.40;1.37;;;14.70;99.90;;;;;;4933247;29;20667;-70
2022/07/08 04:01:01;;;;;;;3.17;1.60;;;14.80;99.90;;;;;;4933497;29;20643;-69
2022/07/08 04:03:29;;;;;;;1.50;1.30;;;15.00;99.90;;;;;;4934143;29;20632;-69
2022/07/08 04:05:56;;;;;;;3.43;1.20;;;15.10;99.90;;;;;;4931907;29;20648;-69
2022/07/08 04:08:22;;;;;;;1.33;1.33;;;15.30;99.90;;;;;;4933385;29;21269;-69
2022/07/08 04:10:49;;;;;;;1.37;1.10;;;15.30;99.90;;;;;;4930449;29;20659;-70
2022/07/08 04:13:16;;;;;;;1.37;1.30;;;15.40;99.90;;;;;;4931720;29;21230;-69
2022/07/08 04:15:50;;;;;;;1.80;1.70;;;15.50;99.90;;;;;;4929493;29;20649;-72
2022/07/08 04:18:18;;;;;;;2.17;1.23;;;15.70;99.90;;;;;;4931489;29;21250;-69
2022/07/08 04:20:45;;;;;;;3.20;1.77;;;15.90;99.90;;;;;;4931918;29;21267;-69
2022/07/08 04:23:12;;;;;;;1.50;1.40;;;16.20;99.90;;;;;;4931923;29;20733;-67
2022/07/08 04:25:39;;;;;;;4.20;1.93;;;16.40;99.90;;;;;;4931446;29;20629;-69
2022/07/08 04:28:05;;;;;;;8.60;1.80;;;16.70;99.50;;;;;;4932652;29;20684;-70
2022/07/08 04:30:32;;;;;;;6.67;1.70;;;16.90;98.90;;;;;;4931797;29;21010;-69
2022/07/08 04:32:59;;;;;;;3.20;1.67;;;17.10;98.40;;;;;;4931715;29;20659;-69
2022/07/08 04:35:26;;;;;;;4.23;1.63;;;17.30;97.90;;;;;;4932143;29;20621;-70
2022/07/08 04:37:52;;;;;;;2.80;1.93;;;17.60;97.50;;;;;;4934026;29;20659;-69
2022/07/08 04:40:26;;;;;;;3.27;1.40;;;17.80;96.80;;;;;;4932510;29;20634;-71
2022/07/08 04:42:53;;;;;;;1.97;1.80;;;18.00;96.50;;;;;;4898355;29;20609;-68
2022/07/08 04:45:21;;;;;;;5.90;1.77;;;18.30;95.80;;;;;;4924864;29;20635;-69
2022/07/08 04:47:48;;;;;;;1.43;1.40;;;18.40;95.30;;;;;;4932215;29;20720;-68
2022/07/08 04:50:16;;;;;;;1.70;1.57;;;18.60;95.00;;;;;;4932273;29;20733;-69
2022/07/08 04:52:42;;;;;;;5.70;1.83;;;18.60;94.70;;;;;;4932492;29;20624;-69
2022/07/08 04:55:27;;;;;;;7.20;1.80;;;18.80;94.50;;;;;;4933466;29;20636;-69
2022/07/08 04:57:55;;;;;;;3.33;1.70;;;19.00;93.90;;;;;;4932672;29;20682;-71
2022/07/08 05:00:22;;;;;;;1.77;1.67;;;19.30;93.60;;;;;;4930933;29;20637;-69
2022/07/08 05:02:49;;;;;;;3.70;1.87;;;19.50;93.00;;;;;;4933524;29;20619;-70
2022/07/08 05:05:18;;;;;;;1.40;1.30;;;19.70;92.80;;;;;;4932430;29;20841;-68
2022/07/08 05:07:47;;;;;;;2.60;1.43;;;19.90;92.40;;;;;;4931370;29;20660;-70
2022/07/08 05:10:16;;;;;;;1.43;1.23;;;20.10;91.70;;;;;;4931728;29;20990;-69
2022/07/08 05:12:43;;;;;;;1.50;1.40;;;20.20;91.80;;;;;;4931576;29;21016;-71
2022/07/08 05:15:11;;;;;;;1.63;1.47;;;20.40;91.30;;;;;;4932479;29;20613;-69
2022/07/08 05:17:39;;;;;;;3.40;1.63;;;20.60;90.90;;;;;;4931393;29;20660;-70
2022/07/08 05:20:08;;;;;;;2.10;1.60;;;20.80;90.60;;;;;;4932382;29;20708;-69
2022/07/08 05:22:35;;;;;;;3.17;1.63;;;21.00;90.30;;;;;;4931133;29;20635;-71
2022/07/08 05:25:06;;;;;;;4.13;1.50;;;21.00;90.00;;;;;;4915569;29;20659;-69
2022/07/08 05:27:34;;;;;;;4.60;1.70;;;21.10;89.60;;;;;;4931603;29;20668;-69
2022/07/08 05:30:03;;;;;;;1.67;1.30;;;21.20;89.40;;;;;;4931870;29;21200;-69
2022/07/08 05:32:30;;;;;;;1.70;1.60;;;21.40;88.40;;;;;;4930872;29;20641;-70
2022/07/08 05:35:00;;;;;;;3.23;1.87;;;21.60;87.10;;;;;;4932824;29;20661;-68
2022/07/08 05:37:28;;;;;;;2.40;1.33;;;21.90;86.30;;;;;;4931345;29;21269;-69
2022/07/08 05:39:54;;;;;;;2.10;1.47;;;22.00;84.90;;;;;;4932447;29;20719;-69
2022/07/08 05:42:21;;;;;;;3.90;1.93;;;22.10;84.20;;;;;;4932571;29;20640;-70
2022/07/08 05:44:48;;;;;;;5.30;1.77;;;22.20;83.60;;;;;;4935293;29;20989;-69
2022/07/08 05:47:15;;;;;;;4.43;1.60;;;22.20;82.40;;;;;;4935801;29;20728;-69
2022/07/08 05:49:44;;;;;;;2.60;1.60;;;22.40;82.10;;;;;;4934860;29;20620;-69
2022/07/08 05:52:11;;;;;;;3.27;1.87;;;22.50;82.20;;;;;;4935236;29;20643;-65
2022/07/08 05:54:38;;;;;;;4.83;1.53;;;22.70;81.80;;;;;;4936061;29;20624;-69
2022/07/08 05:57:05;;;;;;;1.30;1.20;;;23.00;80.10;;;;;;4934674;29;20665;-69
2022/07/08 05:59:32;;;;;;;1.40;1.33;;;23.30;79.40;;;;;;4917972;29;20652;-69
2022/07/08 06:01:59;;;;;;;1.70;1.50;;;23.50;78.00;;;;;;4935255;29;20667;-69
2022/07/08 06:04:26;;;;;;;3.33;1.30;;;23.60;77.50;;;;;;4935982;29;20648;-69
2022/07/08 06:06:53;;;;;;;2.90;1.70;;;23.80;76.80;;;;;;4935049;29;20746;-69
2022/07/08 06:09:19;;;;;;;2.40;1.73;;;23.90;76.00;;;;;;4934969;29;20798;-69
2022/07/08 06:11:46;;;;;;;1.43;1.30;;;24.20;75.40;;;;;;4918465;29;20640;-69
2022/07/08 06:14:13;;;;;;;5.63;1.53;;;24.60;74.30;;;;;;4936398;29;20616;-65
2022/07/08 06:16:40;;;;;;;1.30;1.00;;;25.00;73.10;;;;;;4935105;29;20644;-71
2022/07/08 06:19:07;;;;;;;3.90;1.80;;;25.20;70.90;;;;;;4935133;29;20664;-68
2022/07/08 06:21:34;;;;;;;2.53;1.30;;;25.60;69.90;;;;;;4935428;29;20613;-69
2022/07/08 06:24:01;;;;;;;4.40;1.57;;;26.00;68.70;;;;;;4935691;29;21078;-69
2022/07/08 06:26:28;;;;;;;3.33;1.40;;;26.50;67.10;;;;;;4934848;29;21352;-68
2022/07/08 06:28:55;;;;;;;3.37;1.27;;;26.50;65.60;;;;;;4934354;29;20728;-66
2022/07/08 06:31:22;;;;;;;1.00;1.00;;;26.80;64.60;;;;;;4932383;29;20708;-70
2022/07/08 06:33:56;;;;;;;3.57;1.30;;;27.30;63.10;;;;;;4932376;29;24447;-69
2022/07/08 06:36:26;;;;;;;4.00;1.10;;;27.70;62.00;;;;;;4934705;29;21117;-69
2022/07/08 06:38:53;;;;;;;1.90;1.10;;;28.40;60.60;;;;;;4935084;29;20732;-68
2022/07/08 06:41:26;;;;;;;2.30;1.37;;;29.10;58.70;;;;;;4933109;29;20629;-69
2022/07/08 06:43:53;;;;;;;2.50;1.07;;;29.70;58.10;;;;;;4933116;29;20629;-70
2022/07/08 06:46:19;;;;;;;2.50;1.63;;;30.50;55.20;;;;;;4932966;29;20617;-69
2022/07/08 06:48:46;;;;;;;3.53;1.57;;;30.80;53.70;;;;;;4916991;29;21412;-69
2022/07/08 06:51:13;;;;;;;1.50;1.20;;;31.00;52.90;;;;;;4933207;29;20736;-69
2022/07/08 06:56:25;;;;;;;2.70;1.07;;;31.60;50.90;;;;;;4935220;29;20747;-67
2022/07/08 06:58:52;;;;;;;1.60;1.10;;;29.80;51.80;;;;;;4917839;29;20665;-70
2022/07/08 07:01:18;;;;;;;2.83;1.40;;;29.20;52.90;;;;;;4932760;29;20633;-69
2022/07/08 07:03:45;;;;;;;1.17;1.13;;;30.80;52.00;;;;;;4933799;29;20655;-69
2022/07/08 07:06:12;;;;;;;1.67;1.20;;;31.00;49.80;;;;;;4932923;29;20724;-69
2022/07/08 07:08:39;;;;;;;1.30;1.20;;;31.50;49.70;;;;;;4934552;29;20977;-69
2022/07/08 07:11:05;;;;;;;2.30;1.23;;;32.70;49.00;;;;;;4933603;29;20643;-69
2022/07/08 07:13:32;;;;;;;1.57;1.20;;;32.80;47.80;;;;;;4933061;29;20637;-69
2022/07/08 07:15:59;;;;;;;1.77;1.00;;;33.60;47.30;;;;;;4932945;29;20645;-69
2022/07/08 07:18:25;;;;;;;4.70;1.30;;;35.00;45.80;;;;;;4931073;29;20661;-70
2022/07/08 07:20:53;;;;;;;1.53;1.30;;;36.40;44.20;;;;;;4933820;29;20636;-69
2022/07/08 07:23:20;;;;;;;1.40;1.30;;;37.00;43.10;;;;;;4932402;29;21001;-69
2022/07/08 07:25:47;;;;;;;1.70;1.10;;;37.30;42.60;;;;;;4926298;29;21231;-69
2022/07/08 07:28:13;;;;;;;1.27;1.17;;;35.80;42.60;;;;;;4933233;29;20669;-69
2022/07/08 07:30:40;;;;;;;2.10;1.10;;;33.10;44.10;;;;;;4929983;29;20684;-69
2022/07/08 07:33:15;;;;;;;3.33;1.53;;;32.00;46.20;;;;;;4928898;29;20740;-69
2022/07/08 07:35:41;;;;;;;3.70;1.40;;;32.70;45.70;;;;;;4932804;29;20687;-71
2022/07/08 07:38:08;;;;;;;1.70;1.33;;;31.90;45.90;;;;;;4932567;29;20664;-69
2022/07/08 07:40:35;;;;;;;1.70;1.23;;;30.40;47.30;;;;;;4916390;29;20667;-70
2022/07/08 07:43:02;;;;;;;1.33;0.83;;;29.50;49.40;;;;;;4931462;29;20640;-71
2022/07/08 07:45:28;;;;;;;2.07;1.60;;;31.20;47.50;;;;;;4932140;29;20648;-69
2022/07/08 07:47:55;;;;;;;4.30;1.23;;;31.90;45.90;;;;;;4932490;29;20669;-69
2022/07/08 07:50:22;;;;;;;2.30;1.30;;;30.60;46.80;;;;;;4932464;29;20731;-69
2022/07/08 07:52:49;;;;;;;2.63;1.20;;;28.80;48.70;;;;;;4933936;29;20647;-69
2022/07/08 07:55:16;;;;;;;1.43;1.33;;;27.40;50.30;;;;;;4933860;29;20656;-68
2022/07/08 07:57:45;;;;;;;2.07;1.10;;;26.80;51.60;;;;;;4932481;29;20755;-68
2022/07/08 08:00:13;;;;;;;1.27;1.17;;;28.30;50.70;;;;;;4933317;29;20760;-70
2022/07/08 08:02:40;;;;;;;2.20;1.67;;;30.20;48.10;;;;;;4931776;29;20637;-69
2022/07/08 08:05:07;;;;;;;1.07;0.93;;;32.50;46.20;;;;;;4931783;29;20736;-69
2022/07/08 08:07:34;;;;;;;1.17;1.10;;;35.50;43.60;;;;;;4932924;29;20637;-67
2022/07/08 08:10:01;;;;;;;2.47;1.20;;;37.20;40.60;;;;;;4932578;29;20644;-69
2022/07/08 08:12:28;;;;;;;1.30;1.20;;;36.00;40.50;;;;;;4933010;29;20613;-70
2022/07/08 08:14:55;;;;;;;2.30;1.30;;;33.90;41.90;;;;;;4932895;29;20641;-69
2022/07/08 08:17:22;;;;;;;1.67;1.20;;;34.60;42.60;;;;;;4932360;29;20653;-69
2022/07/08 08:19:49;;;;;;;1.20;1.20;;;36.50;40.90;;;;;;4933302;29;20664;-70
2022/07/08 08:22:16;;;;;;;1.17;1.00;;;37.50;39.20;;;;;;4929670;29;20688;-69
2022/07/08 08:24:43;;;;;;;1.43;1.10;;;35.60;40.30;;;;;;4932235;29;20697;-69
2022/07/08 08:27:11;;;;;;;1.53;1.10;;;33.80;41.40;;;;;;4932662;29;20649;-70
2022/07/08 08:29:37;;;;;;;1.13;1.00;;;33.50;41.70;;;;;;4932045;29;20632;-69
2022/07/08 08:32:04;;;;;;;1.47;1.37;;;32.40;43.10;;;;;;4931685;29;20643;-69
2022/07/08 08:34:32;;;;;;;4.93;1.43;;;31.00;43.50;;;;;;4927608;29;20626;-69
2022/07/08 08:36:58;;;;;;;1.40;1.30;;;29.40;45.20;;;;;;4915719;29;20673;-69
2022/07/08 08:39:25;;;;;;;2.10;1.00;;;30.80;45.40;;;;;;4933434;29;20756;-69
2022/07/08 08:41:52;;;;;;;1.87;1.20;;;34.10;42.00;;;;;;4931431;29;20989;-66
2022/07/08 08:44:19;;;;;;;8.53;5.80;;;37.00;40.00;;;;;;4933310;29;21496;-66
2022/07/08 08:46:46;;;;;;;2.07;1.87;;;38.60;38.80;;;;;;4931991;29;20648;-64
2022/07/08 08:49:16;;;;;;;2.00;1.40;;;40.10;37.10;;;;;;4916586;29;20629;-67
2022/07/08 08:51:46;;;;;;;4.67;1.80;;;40.70;36.70;;;;;;4933803;29;20636;-67
2022/07/08 08:54:13;;;;;;;2.77;1.20;;;41.20;35.70;;;;;;4933203;29;20621;-67
2022/07/08 08:56:40;;;;;;;1.93;1.23;;;41.60;35.60;;;;;;4915064;29;20653;-67
2022/07/08 08:59:08;;;;;;;1.10;0.97;;;43.20;34.90;;;;;;4932741;29;20613;-64
2022/07/08 09:01:34;;;;;;;2.07;1.10;;;44.40;33.90;;;;;;4931734;29;20706;-64
2022/07/08 09:04:10;;;;;;;1.27;1.03;;;45.20;33.30;;;;;;4932798;29;20670;-67
2022/07/08 09:06:38;;;;;;;1.50;1.40;;;45.50;32.80;;;;;;4931839;29;20669;-65
2022/07/08 09:09:06;;;;;;;1.30;1.20;;;44.80;32.50;;;;;;4932733;29;21489;-67
2022/07/08 09:11:33;;;;;;;3.10;1.27;;;41.40;33.60;;;;;;4925741;29;20640;-69
2022/07/08 09:14:22;;;;;;;1.83;1.20;;;37.80;35.30;;;;;;4932184;29;20961;-68
2022/07/08 09:17:17;;;;;;;5.83;1.10;;;36.10;37.10;;;;;;4913723;29;21210;-67
2022/07/08 09:19:48;;;;;;;1.33;1.23;;;37.20;36.90;;;;;;4917886;29;21282;-67
2022/07/08 09:22:21;;;;;;;1.67;1.57;;;39.20;35.50;;;;;;4934900;29;20636;-67
2022/07/08 09:24:48;;;;;;;1.37;1.20;;;41.60;34.60;;;;;;4933550;29;21283;-67
2022/07/08 09:27:15;;;;;;;1.00;1.00;;;43.60;33.20;;;;;;4933919;29;20669;-67
2022/07/08 09:30:00;;;;;;;3.87;1.70;;;44.50;32.80;;;;;;4935438;29;21090;-68
2022/07/08 09:32:27;;;;;;;1.50;1.27;;;45.90;32.10;;;;;;4935409;29;20667;-66
2022/07/08 09:34:54;;;;;;;1.97;1.27;;;44.80;31.70;;;;;;4934439;29;20616;-65
2022/07/08 09:37:21;;;;;;;2.00;1.30;;;45.70;31.60;;;;;;4934060;29;21269;-66
2022/07/08 09:39:48;;;;;;;2.57;1.40;;;44.50;31.60;;;;;;4930545;29;20680;-68
2022/07/08 09:42:17;;;;;;;2.53;1.67;;;45.00;31.60;;;;;;4934504;29;20774;-67
2022/07/08 09:44:51;;;;;;;2.30;1.57;;;45.10;31.40;;;;;;4916407;29;21205;-68
2022/07/08 09:47:18;;;;;;;2.33;1.50;;;46.00;31.20;;;;;;4935354;29;20702;-67
2022/07/08 09:49:47;;;;;;;1.57;1.47;;;46.60;31.10;;;;;;4934161;29;20647;-68
2022/07/08 09:52:22;;;;;;;2.03;1.40;;;46.30;31.00;;;;;;4934077;29;20731;-68
2022/07/08 09:55:19;;;;;;;1.07;0.97;;;46.50;30.60;;;;;;4935196;29;20617;-69
2022/07/08 09:57:45;;;;;;;2.23;1.43;;;46.80;30.50;;;;;;4917875;29;20679;-68
2022/07/08 10:00:14;;;;;;;1.80;1.70;;;46.80;30.50;;;;;;4934541;29;20787;-67
2022/07/08 10:02:42;;;;;;;1.60;1.50;;;46.20;30.40;;;;;;4936615;29;20624;-68
2022/07/08 10:05:09;;;;;;;1.47;1.37;;;45.90;30.60;;;;;;4936911;29;20621;-70
2022/07/08 10:07:36;;;;;;;1.50;1.40;;;44.60;31.00;;;;;;4951074;29;20645;-67
2022/07/08 10:10:04;;;;;;;1.40;1.30;;;44.10;31.30;;;;;;4936571;29;20708;-67
2022/07/08 10:12:33;;;;;;;2.20;2.00;;;44.00;31.20;;;;;;4936228;29;20664;-67
2022/07/08 10:15:01;;;;;;;1.90;1.80;;;41.20;32.20;;;;;;4935978;29;20637;-68
2022/07/08 10:17:37;;;;;;;6.13;5.53;;;40.00;33.00;;;;;;4935648;29;20641;-64
2022/07/08 10:20:05;;;;;;;1.43;1.33;;;39.20;33.80;;;;;;4935538;29;20665;-65
2022/07/08 10:22:33;;;;;;;1.90;1.60;;;38.10;34.70;;;;;;4936088;29;21152;-66
2022/07/08 10:25:02;;;;;;;3.60;1.63;;;36.70;35.70;;;;;;4919267;29;20629;-65
2022/07/08 10:27:29;;;;;;;2.50;1.53;;;34.90;37.00;;;;;;4935885;29;21235;-65
2022/07/08 10:30:19;;;;;;;2.07;1.50;;;34.10;37.40;;;;;;4935991;29;20642;-66
2022/07/08 10:32:53;;;;;;;1.73;1.30;;;33.10;38.30;;;;;;4936140;29;20734;-64
2022/07/08 10:35:21;;;;;;;1.53;1.43;;;31.50;39.20;;;;;;4936101;29;21163;-64
2022/07/08 10:37:56;;;;;;;4.47;1.20;;;30.50;40.40;;;;;;4936021;29;20654;-66
2022/07/08 10:40:41;;;;;;;1.23;1.07;;;29.40;41.80;;;;;;4923637;29;20699;-64
2022/07/08 10:43:25;;;;;;;1.20;1.10;;;28.40;42.80;;;;;;4935838;29;21217;-64
2022/07/08 10:46:10;;;;;;;3.27;1.30;;;27.90;43.90;;;;;;4936110;29;20629;-66
2022/07/08 10:48:40;;;;;;;1.63;1.50;;;27.50;44.20;;;;;;4935625;29;20716;-64
2022/07/08 10:51:28;;;;;;;6.30;1.97;;;26.90;45.30;;;;;;4935847;29;21008;-64
2022/07/08 10:54:24;;;;;;;1.53;1.40;;;26.30;45.80;;;;;;4925385;29;20719;-64
2022/07/08 10:56:59;;;;;;;1.80;1.57;;;26.00;45.90;;;;;;4935791;29;20675;-65
2022/07/08 10:59:27;;;;;;;1.90;1.80;;;25.70;46.90;;;;;;4935187;29;20720;-64
2022/07/08 11:01:54;;;;;;;2.07;1.60;;;25.50;47.60;;;;;;4935481;29;21039;-64
2022/07/08 11:04:33;;;;;;;2.50;1.33;;;25.60;47.60;;;;;;4935689;29;20629;-64
2022/07/08 11:09:46;;;;;;;4.07;1.97;;;25.30;48.20;;;;;;4934604;29;20613;-64
2022/07/08 11:12:27;;;;;;;3.07;1.40;;;25.00;48.40;;;;;;4949978;29;21087;-63
2022/07/08 11:14:56;;;;;;;3.57;1.43;;;24.80;48.50;;;;;;4935614;29;20621;-64
2022/07/08 11:17:24;;;;;;;2.43;1.87;;;24.50;48.90;;;;;;4934533;29;20644;-66
2022/07/08 11:19:52;;;;;;;4.30;2.00;;;24.20;49.80;;;;;;4917604;29;20617;-66
2022/07/08 11:22:20;;;;;;;2.10;1.80;;;24.10;50.70;;;;;;4934701;29;20656;-67
2022/07/08 11:24:52;;;;;;;4.30;3.07;;;24.10;50.40;;;;;;4934613;29;20624;-68
2022/07/08 11:27:24;;;;;;;1.17;1.00;;;24.10;51.10;;;;;;4953403;23;20904;-66
2022/07/08 11:29:53;;;;;;;1.60;1.50;;;23.90;50.70;;;;;;4972910;28;20666;-69
2022/07/08 11:32:21;;;;;;;4.43;1.50;;;23.90;51.10;;;;;;4972910;28;20690;-66
2022/07/08 11:34:50;;;;;;;5.97;1.60;;;23.80;51.50;;;;;;4971608;28;20619;-66
2022/07/08 11:37:17;;;;;;;2.83;1.63;;;23.80;51.20;;;;;;4971314;28;20623;-66
2022/07/08 11:39:44;;;;;;;3.17;2.30;;;23.60;51.80;;;;;;4952658;28;20719;-66
2022/07/08 11:42:13;;;;;;;2.10;1.90;;;23.30;52.60;;;;;;4953317;28;20656;-65
2022/07/08 11:44:40;;;;;;;2.50;2.30;;;23.20;53.20;;;;;;4952547;28;20711;-68
2022/07/08 11:47:07;;;;;;;4.10;2.20;;;23.10;52.90;;;;;;4952460;28;20765;-67
2022/07/08 11:49:40;;;;;;;3.17;2.03;;;23.00;53.00;;;;;;4966839;28;20644;-67
2022/07/08 11:52:07;;;;;;;2.10;2.00;;;22.90;53.00;;;;;;4952359;28;21294;-67
2022/07/08 11:54:34;;;;;;;5.17;1.70;;;23.00;53.10;;;;;;4952550;28;20632;-67
2022/07/08 11:57:03;;;;;;;3.70;2.10;;;23.10;52.60;;;;;;4952233;28;20820;-67
2022/07/08 11:59:35;;;;;;;1.80;1.67;;;23.30;52.20;;;;;;4953093;28;20628;-67
2022/07/08 12:02:03;;;;;;;2.53;1.93;;;23.30;52.00;;;;;;4953132;28;20668;-67
2022/07/08 12:04:30;;;;;;;0.70;0.70;;;23.10;52.70;;;;;;4953145;28;21220;-67
2022/07/08 12:06:59;;;;;;;2.27;2.17;;;23.10;53.20;;;;;;4953613;28;20624;-67
2022/07/08 12:09:28;;;;;;;1.83;1.73;;;22.80;53.60;;;;;;4953021;28;20644;-69
2022/07/08 12:11:57;;;;;;;2.17;1.63;;;22.90;53.40;;;;;;4953381;28;20847;-67
2022/07/08 12:14:24;;;;;;;2.30;1.87;;;22.80;54.00;;;;;;4952919;28;20719;-67
2022/07/08 12:16:55;;;;;;;4.20;2.43;;;22.70;54.60;;;;;;4953242;28;20711;-68
2022/07/08 12:19:30;;;;;;;2.67;2.03;;;22.60;54.00;;;;;;4952925;28;20731;-67
2022/07/08 12:22:05;;;;;;;1.70;1.60;;;22.60;53.90;;;;;;4952912;28;21011;-67
2022/07/08 12:24:38;;;;;;;1.83;1.73;;;22.70;53.60;;;;;;4952903;28;20630;-68
2022/07/08 12:27:06;;;;;;;3.60;2.00;;;22.70;53.40;;;;;;4952759;28;20626;-67
2022/07/08 12:29:38;;;;;;;1.70;1.60;;;22.70;53.40;;;;;;4947912;28;20664;-69
2022/07/08 12:32:07;;;;;;;4.97;2.10;;;22.70;53.60;;;;;;4960544;28;20679;-68
2022/07/08 12:34:34;;;;;;;2.33;1.57;;;22.80;53.00;;;;;;4952814;28;20725;-68
2022/07/08 12:37:14;;;;;;;2.37;2.20;;;22.80;52.50;;;;;;4952860;28;21230;-67
2022/07/08 12:39:41;;;;;;;1.93;1.83;;;22.90;52.80;;;;;;4952311;28;21163;-68
2022/07/08 12:42:24;;;;;;;2.83;2.10;;;23.00;52.60;;;;;;4951806;29;20664;-67
2022/07/08 12:44:51;;;;;;;3.37;2.20;;;22.90;53.90;;;;;;4952025;28;20998;-68
2022/07/08 12:47:18;;;;;;;2.07;1.80;;;22.90;53.20;;;;;;4950747;28;20636;-68
2022/07/08 12:49:46;;;;;;;2.23;1.70;;;22.90;53.20;;;;;;4951826;29;20620;-69
2022/07/08 12:52:15;;;;;;;3.63;1.53;;;23.00;53.30;;;;;;4950167;28;20748;-68
2022/07/08 12:54:43;;;;;;;1.90;1.80;;;22.90;53.70;;;;;;4946860;29;20719;-67
2022/07/08 12:57:10;;;;;;;2.80;1.93;;;23.00;53.60;;;;;;4950237;28;20679;-68
2022/07/08 12:59:37;;;;;;;2.40;2.20;;;23.00;53.70;;;;;;4951812;28;20675;-68